Time;durP1;ratioP1;P1;durP2;ratioP2;P2;SDS_P1;SDS_P2;PMS_P1;PMS_P2;Temp;Humidity;BMP_temperature;BMP_pressure;BME280_temperature;BME280_humidity;BME280_pressure;Samples;Min_cycle;Max_cycle;Signal;HPM_P1;HPM_P2
2022/09/12 00:01:22;;;;;;;6.17;4.30;;;;;;;9.18;100.00;99995.45;1765727;81;21268;-37
2022/09/12 00:03:54;;;;;;;4.10;3.72;;;;;;;9.13;100.00;99988.24;1765774;81;20943;-36
2022/09/12 00:06:24;;;;;;;6.53;3.62;;;;;;;9.08;100.00;99993.48;1765660;81;21405;-36
2022/09/12 00:08:54;;;;;;;6.42;3.52;;;;;;;9.02;100.00;100000.06;1765628;80;21022;-41
2022/09/12 00:11:22;;;;;;;7.67;3.85;;;;;;;9.02;100.00;100001.36;1765744;81;20944;-39
2022/09/12 00:13:49;;;;;;;11.20;3.92;;;;;;;9.00;100.00;99996.21;1765595;81;21234;-37
2022/09/12 00:16:23;;;;;;;4.75;3.75;;;;;;;8.97;100.00;99997.56;1765640;81;20888;-37
2022/09/12 00:18:51;;;;;;;5.53;3.83;;;;;;;8.93;100.00;99988.61;1765689;81;20954;-40
2022/09/12 00:21:18;;;;;;;7.87;4.30;;;;;;;8.90;100.00;99995.53;1765765;81;21513;-39
2022/09/12 00:23:44;;;;;;;4.67;4.22;;;;;;;8.87;100.00;99991.72;1765662;81;20951;-36
2022/09/12 00:26:12;;;;;;;11.55;3.77;;;;;;;8.86;100.00;99990.48;1765645;81;21122;-41
2022/09/12 00:28:39;;;;;;;4.47;3.37;;;;;;;8.81;100.00;99989.69;1765405;80;20907;-38
2022/09/12 00:31:12;;;;;;;4.42;4.03;;;;;;;8.75;100.00;99979.89;1765487;80;21081;-39
2022/09/12 00:33:39;;;;;;;7.45;3.65;;;;;;;8.71;100.00;99981.27;1765507;80;21000;-40
2022/09/12 00:36:14;;;;;;;5.42;3.50;;;;;;;8.65;100.00;99977.51;1765652;81;20935;-37
2022/09/12 00:38:42;;;;;;;9.05;3.62;;;;;;;8.59;100.00;99970.30;1765223;81;22429;-39
2022/09/12 00:41:20;;;;;;;8.10;3.92;;;;;;;8.53;100.00;99967.84;1765742;81;21540;-39
2022/09/12 00:43:52;;;;;;;11.43;3.77;;;;;;;8.50;100.00;99970.89;1765643;81;20902;-37
2022/09/12 00:46:30;;;;;;;6.65;3.87;;;;;;;8.44;100.00;99971.39;1765847;81;21483;-38
2022/09/12 00:49:19;;;;;;;7.78;4.80;;;;;;;8.39;100.00;99973.62;1765755;81;21486;-38
2022/09/12 00:51:53;;;;;;;6.12;4.50;;;;;;;8.36;100.00;99971.10;1765520;81;21091;-38
2022/09/12 00:54:25;;;;;;;8.98;4.28;;;;;;;8.37;100.00;99972.80;1765560;81;20995;-37
2022/09/12 00:56:53;;;;;;;4.28;3.55;;;;;;;8.33;100.00;99975.44;1765825;81;21484;-38
2022/09/12 00:59:27;;;;;;;4.58;4.05;;;;;;;8.30;100.00;99972.91;1765574;81;20975;-37
2022/09/12 01:01:54;;;;;;;10.30;4.35;;;;;;;8.26;100.00;99977.72;1764731;81;20970;-36
2022/09/12 01:04:22;;;;;;;10.65;4.15;;;;;;;8.22;100.00;99981.65;1765819;81;21488;-40
2022/09/12 01:06:48;;;;;;;9.58;4.10;;;;;;;8.16;100.00;99982.59;1765910;81;20896;-41
2022/09/12 01:09:18;;;;;;;8.60;4.30;;;;;;;8.18;100.00;99979.55;1765716;81;20967;-39
2022/09/12 01:11:45;;;;;;;5.90;3.75;;;;;;;8.17;100.00;99976.55;1765860;81;20931;-39
2022/09/12 01:14:14;;;;;;;8.98;3.70;;;;;;;8.14;100.00;99978.77;1765814;81;21022;-35
2022/09/12 01:16:41;;;;;;;10.63;3.92;;;;;;;8.13;100.00;99981.35;1765594;81;21916;-36
2022/09/12 01:19:43;;;;;;;5.55;3.62;;;;;;;8.13;100.00;99978.77;1765597;81;20951;-37
2022/09/12 01:22:47;;;;;;;7.00;3.40;;;;;;;8.09;100.00;99973.26;1684489;81;21481;-40
2022/09/12 01:25:26;;;;;;;9.10;3.75;;;;;;;8.02;100.00;99977.66;1765035;81;21029;-38
2022/09/12 01:28:21;;;;;;;6.35;3.42;;;;;;;7.93;100.00;99972.20;1765611;81;20975;-38
2022/09/12 01:31:07;;;;;;;5.03;3.25;;;;;;;7.86;100.00;99976.62;1765582;81;21250;-41
2022/09/12 01:34:10;;;;;;;4.00;3.60;;;;;;;7.80;100.00;99977.14;1765543;80;21006;-37
2022/09/12 01:36:53;;;;;;;6.35;3.92;;;;;;;7.79;100.00;99974.14;1765579;81;21055;-38
2022/09/12 01:39:58;;;;;;;11.48;4.03;;;;;;;7.78;100.00;99965.55;1765707;81;21057;-38
2022/09/12 01:42:47;;;;;;;5.78;3.75;;;;;;;7.71;100.00;99966.09;1765572;81;21046;-39
2022/09/12 01:45:31;;;;;;;5.45;3.35;;;;;;;7.64;100.00;99961.89;1765663;81;21149;-40
2022/09/12 01:48:23;;;;;;;5.97;3.60;;;;;;;7.55;100.00;99964.59;1765598;81;21010;-39
2022/09/12 01:50:54;;;;;;;8.68;3.95;;;;;;;7.46;100.00;99969.44;1765491;80;20971;-41
2022/09/12 01:53:26;;;;;;;10.60;3.58;;;;;;;7.39;100.00;99975.55;1765922;81;21031;-39
2022/09/12 01:56:04;;;;;;;4.97;4.12;;;;;;;7.32;100.00;99973.02;1765937;81;20990;-36
2022/09/12 01:58:44;;;;;;;6.85;4.37;;;;;;;7.26;100.00;99974.85;1765841;80;21837;-39
2022/09/12 02:01:28;;;;;;;10.40;4.10;;;;;;;7.25;100.00;99968.00;1765824;81;21520;-39
2022/09/12 02:04:18;;;;;;;7.65;4.30;;;;;;;7.27;100.00;99967.55;1765769;81;21002;-39
2022/09/12 02:06:51;;;;;;;3.52;3.22;;;;;;;7.29;100.00;99970.95;1765801;81;20868;-38
2022/09/12 02:09:32;;;;;;;8.53;3.83;;;;;;;7.28;100.00;99973.11;1735608;81;21006;-36
2022/09/12 02:11:59;;;;;;;4.78;3.60;;;;;;;7.24;100.00;99969.70;1759991;81;22145;-37
2022/09/12 02:14:35;;;;;;;5.92;4.50;;;;;;;7.22;100.00;99961.60;1765768;81;20935;-41
2022/09/12 02:17:14;;;;;;;5.62;5.05;;;;;;;7.21;100.00;99962.48;1766168;81;20935;-37
2022/09/12 02:19:59;;;;;;;6.37;4.12;;;;;;;7.24;100.00;99950.39;1765646;81;20967;-40
2022/09/12 02:22:28;;;;;;;7.78;4.78;;;;;;;7.25;100.00;99944.83;1764778;80;26706;-36
2022/09/12 02:24:59;;;;;;;8.43;5.28;;;;;;;7.22;100.00;99944.88;1735833;81;21222;-38
2022/09/12 02:27:36;;;;;;;5.90;4.08;;;;;;;7.21;100.00;99939.31;1765836;81;20936;-36
2022/09/12 02:30:05;;;;;;;6.78;4.17;;;;;;;7.17;100.00;99943.18;1765778;81;20907;-37
2022/09/12 02:33:10;;;;;;;5.30;4.15;;;;;;;7.16;100.00;99942.77;1765935;81;21522;-36
2022/09/12 02:36:03;;;;;;;8.83;3.72;;;;;;;7.15;100.00;99939.78;1765567;80;20844;-38
2022/09/12 02:38:44;;;;;;;6.40;3.80;;;;;;;7.15;100.00;99942.34;1765987;81;21858;-36
2022/09/12 02:41:12;;;;;;;10.18;4.22;;;;;;;7.11;100.00;99936.83;1765791;81;20967;-37
2022/09/12 02:43:39;;;;;;;8.53;3.80;;;;;;;7.09;100.00;99946.30;1765752;81;20896;-37
2022/09/12 02:46:07;;;;;;;7.12;4.30;;;;;;;7.06;100.00;99946.34;1708862;81;21003;-38
2022/09/12 02:48:35;;;;;;;11.38;5.50;;;;;;;7.04;100.00;99954.06;1766055;81;20900;-37
2022/09/12 02:51:03;;;;;;;14.10;5.28;;;;;;;7.05;100.00;99962.65;1766016;81;21219;-38
2022/09/12 02:53:29;;;;;;;14.83;5.20;;;;;;;7.12;100.00;99964.72;1765591;80;21028;-34
2022/09/12 02:55:56;;;;;;;15.20;5.28;;;;;;;7.19;100.00;99958.17;1765711;81;20970;-36
2022/09/12 02:58:27;;;;;;;11.80;5.55;;;;;;;7.24;100.00;99956.00;1766041;81;20966;-39
2022/09/12 03:01:36;;;;;;;8.05;5.10;;;;;;;7.29;100.00;99956.33;1765692;81;20951;-36
2022/09/12 03:04:42;;;;;;;14.13;6.03;;;;;;;7.36;100.00;99954.53;1765707;81;21271;-35
2022/09/12 03:07:43;;;;;;;12.73;5.58;;;;;;;7.40;100.00;99951.05;1765766;81;20911;-40
2022/09/12 03:10:53;;;;;;;5.50;4.75;;;;;;;7.43;100.00;99951.45;1765554;80;21026;-37
2022/09/12 03:13:48;;;;;;;7.45;3.87;;;;;;;7.41;100.00;99955.32;1765088;81;20927;-39
2022/09/12 03:16:44;;;;;;;6.67;3.62;;;;;;;7.41;100.00;99949.34;1765709;80;20963;-38
2022/09/12 03:19:26;;;;;;;14.10;5.10;;;;;;;7.43;100.00;99949.71;1765874;81;21139;-39
2022/09/12 03:22:17;;;;;;;3.33;3.12;;;;;;;7.44;100.00;99946.27;1765651;81;20951;-41
2022/09/12 03:24:53;;;;;;;4.03;3.72;;;;;;;7.46;100.00;99940.69;1765692;81;20860;-39
2022/09/12 03:27:34;;;;;;;3.62;3.40;;;;;;;7.47;100.00;99943.67;1735622;81;20915;-37
2022/09/12 03:30:00;;;;;;;4.10;3.72;;;;;;;7.51;100.00;99954.77;1765995;81;20931;-38
2022/09/12 03:32:43;;;;;;;9.15;4.75;;;;;;;7.55;100.00;99951.27;1765685;81;22254;-42
2022/09/12 03:35:09;;;;;;;7.47;4.80;;;;;;;7.61;100.00;99942.19;1734632;81;20939;-40
2022/09/12 03:37:37;;;;;;;19.70;4.53;;;;;;;7.73;100.00;99941.58;1783952;80;20970;-40
2022/09/12 03:40:05;;;;;;;7.37;4.17;;;;;;;7.81;100.00;99948.75;1754676;81;20968;-37
2022/09/12 03:42:31;;;;;;;6.62;5.05;;;;;;;7.88;100.00;99954.67;1784198;80;20987;-41
2022/09/12 03:44:58;;;;;;;12.40;5.12;;;;;;;7.94;100.00;99959.72;1754569;81;21183;-40
2022/09/12 03:47:25;;;;;;;18.77;5.03;;;;;;;7.99;100.00;99966.97;1783843;80;20974;-38
2022/09/12 03:49:51;;;;;;;24.55;5.35;;;;;;;8.07;100.00;99972.44;1754750;80;21030;-39
2022/09/12 03:52:18;;;;;;;15.48;4.87;;;;;;;8.15;100.00;99966.70;1783989;79;20966;-36
2022/09/12 03:54:45;;;;;;;9.05;4.78;;;;;;;8.26;100.00;99966.53;1754745;81;20884;-39
2022/09/12 03:57:12;;;;;;;9.40;4.83;;;;;;;8.34;100.00;99965.53;1784270;79;21053;-39
2022/09/12 03:59:40;;;;;;;7.47;4.70;;;;;;;8.43;100.00;99962.37;1754686;81;21363;-41
2022/09/12 04:02:08;;;;;;;5.78;4.62;;;;;;;8.48;100.00;99963.17;1784204;80;20912;-37
2022/09/12 04:04:35;;;;;;;15.95;4.75;;;;;;;8.53;100.00;99955.36;1754543;81;20952;-37
2022/09/12 04:07:02;;;;;;;8.00;4.97;;;;;;;8.57;100.00;99959.16;1784021;80;20947;-39
2022/09/12 04:09:28;;;;;;;5.78;4.65;;;;;;;8.62;100.00;99958.62;1754717;81;21202;-38
2022/09/12 04:11:55;;;;;;;5.53;4.85;;;;;;;8.69;100.00;99963.67;1754603;81;20947;-38
2022/09/12 04:14:22;;;;;;;10.68;4.95;;;;;;;8.77;100.00;99961.36;1754882;81;21501;-40
2022/09/12 04:16:48;;;;;;;18.00;5.87;;;;;;;8.86;100.00;99959.05;1754636;81;21406;-37
2022/09/12 04:19:15;;;;;;;20.50;6.42;;;;;;;8.96;100.00;99957.56;1754677;81;20987;-39
2022/09/12 04:21:42;;;;;;;27.62;6.97;;;;;;;9.04;100.00;99957.83;1754713;81;21788;-39
2022/09/12 04:24:09;;;;;;;23.75;7.22;;;;;;;9.15;100.00;99957.62;1784168;80;20843;-39
2022/09/12 04:26:36;;;;;;;20.88;7.78;;;;;;;9.27;100.00;99959.55;1754328;81;20888;-40
2022/09/12 04:29:02;;;;;;;15.00;6.58;;;;;;;9.39;100.00;99970.91;1754698;81;20912;-39
2022/09/12 04:31:29;;;;;;;14.33;7.20;;;;;;;9.46;100.00;99960.84;1754511;81;20892;-38
2022/09/12 04:33:57;;;;;;;13.20;7.58;;;;;;;9.54;100.00;99960.67;1784058;79;21124;-38
2022/09/12 04:36:25;;;;;;;51.68;8.15;;;;;;;9.57;100.00;99963.65;1766338;81;20990;-37
2022/09/12 04:38:51;;;;;;;27.80;7.95;;;;;;;9.60;100.00;99962.28;1766463;81;21023;-36
2022/09/12 04:41:27;;;;;;;15.30;7.78;;;;;;;9.66;100.00;99962.14;1766436;81;20958;-37
2022/09/12 04:43:57;;;;;;;;;;;;;;;9.71;100.00;99969.80;1768947;81;21019;-41
2022/09/12 04:46:25;;;;;;;18.95;7.92;;;;;;;9.75;100.00;99975.30;1766666;81;21096;-38
2022/09/12 04:48:51;;;;;;;10.72;8.20;;;;;;;9.82;100.00;99969.55;1766286;80;21748;-37
2022/09/12 04:51:26;;;;;;;13.83;7.87;;;;;;;9.84;100.00;99961.31;1766584;80;20943;-37
2022/09/12 04:53:57;;;;;;;8.55;7.78;;;;;;;9.83;100.00;99957.03;1766513;81;20923;-40
2022/09/12 04:56:25;;;;;;;8.83;7.37;;;;;;;9.86;100.00;99962.13;1766703;81;20912;-38
2022/09/12 04:58:52;;;;;;;12.10;8.15;;;;;;;9.88;100.00;99975.87;1766497;81;21074;-41
2022/09/12 05:01:21;;;;;;;14.75;8.70;;;;;;;9.87;100.00;99979.34;1740738;81;20959;-37
2022/09/12 05:03:49;;;;;;;14.47;8.43;;;;;;;9.90;100.00;99974.96;1766431;81;20943;-38
2022/09/12 05:06:22;;;;;;;9.60;8.35;;;;;;;9.98;100.00;99976.51;1766289;81;20959;-38
2022/09/12 05:08:51;;;;;;;7.40;6.20;;;;;;;10.03;100.00;99979.40;1766775;80;21307;-40
2022/09/12 05:11:23;;;;;;;9.80;8.43;;;;;;;10.09;100.00;99977.55;1766370;81;21743;-37
2022/09/12 05:13:50;;;;;;;8.68;7.78;;;;;;;10.13;100.00;99974.86;1766297;80;21429;-40
2022/09/12 05:16:18;;;;;;;10.32;8.53;;;;;;;10.19;100.00;99976.42;1766373;81;20899;-39
2022/09/12 05:18:46;;;;;;;9.50;7.62;;;;;;;10.24;100.00;99972.02;1766334;80;20927;-39
2022/09/12 05:21:15;;;;;;;10.65;8.83;;;;;;;10.31;100.00;99965.79;1766441;81;20971;-38
2022/09/12 05:23:42;;;;;;;9.10;7.95;;;;;;;10.40;100.00;99957.38;1766675;80;22201;-40
2022/09/12 05:26:14;;;;;;;11.08;8.33;;;;;;;10.45;100.00;99957.70;1766601;81;20999;-39
2022/09/12 05:28:42;;;;;;;11.68;7.65;;;;;;;10.51;100.00;99960.59;1766239;81;21014;-41
2022/09/12 05:31:12;;;;;;;10.00;8.35;;;;;;;10.55;100.00;99957.02;1766292;81;21516;-38
2022/09/12 05:33:42;;;;;;;9.63;8.63;;;;;;;10.61;100.00;99952.97;1766425;81;20899;-40
2022/09/12 05:36:12;;;;;;;12.13;8.50;;;;;;;10.67;100.00;99951.97;1764130;80;21212;-39
2022/09/12 05:40:26;;;;;;;12.13;9.65;;;;;;;10.76;100.00;99942.64;1816233;79;22642;-38
2022/09/12 05:42:53;;;;;;;13.22;9.98;;;;;;;10.77;100.00;99943.52;1789183;80;21014;-39
2022/09/12 05:45:20;;;;;;;13.25;9.78;;;;;;;10.81;100.00;99942.96;1789418;80;21417;-37
2022/09/12 05:47:46;;;;;;;11.45;10.35;;;;;;;10.84;100.00;99941.15;1789285;80;20877;-36
2022/09/12 05:50:13;;;;;;;11.10;9.08;;;;;;;10.91;100.00;99944.42;1789172;80;21466;-40
2022/09/12 05:52:41;;;;;;;11.88;10.40;;;;;;;10.96;100.00;99949.02;1789307;80;21010;-39
2022/09/12 05:55:08;;;;;;;16.48;10.78;;;;;;;11.02;100.00;99955.78;1789208;80;20924;-37
2022/09/12 05:57:35;;;;;;;14.40;10.55;;;;;;;11.05;100.00;99958.28;1759048;80;21117;-36
2022/09/12 06:00:04;;;;;;;12.40;10.58;;;;;;;11.07;100.00;99951.31;1789207;80;20931;-39
2022/09/12 06:02:33;;;;;;;12.35;10.25;;;;;;;11.07;100.00;99949.55;1758251;80;20975;-37
2022/09/12 06:05:00;;;;;;;20.08;11.08;;;;;;;11.12;100.00;99939.06;1789277;80;21006;-39
2022/09/12 06:07:28;;;;;;;16.50;11.63;;;;;;;11.18;100.00;99940.18;1789494;80;21438;-37
2022/09/12 06:09:58;;;;;;;20.30;10.63;;;;;;;11.27;100.00;99942.12;1789150;80;21041;-39
2022/09/12 06:12:25;;;;;;;18.17;10.90;;;;;;;11.33;100.00;99943.22;1789243;80;21517;-39
2022/09/12 06:14:53;;;;;;;15.00;10.53;;;;;;;11.39;100.00;99940.44;1789247;80;21346;-39
2022/09/12 06:17:21;;;;;;;20.65;10.80;;;;;;;11.45;100.00;99948.02;1789034;80;20994;-38
2022/09/12 06:19:50;;;;;;;11.83;10.50;;;;;;;11.48;100.00;99950.52;1789130;80;20928;-36
2022/09/12 06:22:18;;;;;;;15.13;10.38;;;;;;;11.54;100.00;99949.49;1784873;79;21253;-36
2022/09/12 06:24:45;;;;;;;13.35;9.58;;;;;;;11.64;100.00;99944.88;1784113;79;21146;-35
2022/09/12 06:27:11;;;;;;;12.20;10.43;;;;;;;11.76;100.00;99941.92;1784219;80;20987;-38
2022/09/12 06:29:38;;;;;;;12.70;10.88;;;;;;;11.90;100.00;99953.15;1784219;80;21489;-38
2022/09/12 06:32:06;;;;;;;12.40;10.45;;;;;;;12.02;100.00;99953.67;1784264;80;20935;-38
2022/09/12 06:34:33;;;;;;;12.70;10.82;;;;;;;12.16;100.00;99951.92;1783990;80;21097;-39
2022/09/12 06:59:33;;;;;;;19.60;12.28;;;;;;;12.98;100.00;99949.10;1816952;77;21806;-37
2022/09/12 07:02:02;;;;;;;17.70;11.22;;;;;;;12.98;100.00;99956.03;1779808;79;20928;-37
2022/09/12 07:04:32;;;;;;;12.25;11.03;;;;;;;12.99;100.00;99957.73;1802931;79;21137;-37
2022/09/12 07:07:00;;;;;;;17.67;10.80;;;;;;;12.99;100.00;99958.59;1799037;78;21551;-37
2022/09/12 07:09:29;;;;;;;13.78;11.28;;;;;;;13.01;100.00;99963.71;1794483;78;20880;-37
2022/09/12 07:11:55;;;;;;;17.52;10.65;;;;;;;13.17;100.00;99960.12;1794077;79;21507;-37
2022/09/12 07:14:22;;;;;;;11.85;10.48;;;;;;;13.41;100.00;99953.14;1802654;79;20880;-38
2022/09/12 07:16:48;;;;;;;16.48;11.33;;;;;;;13.65;100.00;99954.00;1737277;79;21855;-38
2022/09/12 07:19:17;;;;;;;16.75;10.90;;;;;;;13.99;100.00;99960.88;1788116;79;21105;-37
2022/09/12 07:21:46;;;;;;;14.55;10.18;;;;;;;14.21;100.00;99964.77;1798793;79;20888;-37
2022/09/12 07:24:13;;;;;;;15.43;9.55;;;;;;;14.41;100.00;99968.75;1800352;78;20926;-37
2022/09/12 07:26:40;;;;;;;10.78;9.68;;;;;;;14.65;100.00;99962.48;1780138;79;20919;-38
2022/09/12 07:29:12;;;;;;;10.48;9.18;;;;;;;14.89;100.00;99960.20;1804285;79;21134;-38
2022/09/12 07:31:40;;;;;;;12.05;9.15;;;;;;;15.16;100.00;99956.00;1778712;79;20967;-38
2022/09/12 07:34:08;;;;;;;17.35;9.75;;;;;;;15.30;100.00;99952.75;1794418;79;22081;-37
2022/09/12 07:36:36;;;;;;;18.27;9.50;;;;;;;15.51;100.00;99943.90;1801960;79;20983;-37
2022/09/12 07:39:02;;;;;;;16.75;9.55;;;;;;;15.62;100.00;99945.17;1743912;79;21299;-37
2022/09/12 07:41:31;;;;;;;10.80;9.00;;;;;;;15.72;100.00;99946.41;1794127;78;21133;-37
2022/09/12 07:43:59;;;;;;;13.58;8.70;;;;;;;15.92;100.00;99945.50;1801394;79;20992;-37
2022/09/12 07:46:28;;;;;;;13.03;9.60;;;;;;;16.15;100.00;99944.80;1794392;79;21030;-37
2022/09/12 07:48:57;;;;;;;16.45;9.23;;;;;;;16.36;100.00;99934.20;1802769;78;20900;-38
2022/09/12 07:51:25;;;;;;;12.53;8.68;;;;;;;16.69;100.00;99931.23;1802767;78;20932;-38
2022/09/12 07:53:52;;;;;;;12.45;8.65;;;;;;;17.11;100.00;99932.53;1804124;79;21247;-37
2022/09/12 07:56:22;;;;;;;13.22;7.85;;;;;;;17.44;100.00;99932.08;1784527;79;20916;-38
2022/09/12 07:58:49;;;;;;;13.05;7.80;;;;;;;17.57;100.00;99941.39;1797680;79;20963;-38
2022/09/12 08:01:22;;;;;;;11.35;7.12;;;;;;;17.61;100.00;99937.19;1790443;79;20901;-38
2022/09/12 08:03:51;;;;;;;11.25;8.08;;;;;;;17.65;100.00;99937.39;1790353;79;20917;-38
2022/09/12 08:06:20;;;;;;;10.50;7.75;;;;;;;17.70;100.00;99934.53;1797523;79;22466;-38
2022/09/12 08:08:47;;;;;;;10.93;8.23;;;;;;;17.77;100.00;99937.16;1794247;79;21537;-38
2022/09/12 08:11:16;;;;;;;19.75;8.38;;;;;;;17.74;100.00;99932.11;1802444;79;21573;-38
2022/09/12 08:13:43;;;;;;;13.78;8.53;;;;;;;17.66;100.00;99936.94;1800593;79;20912;-38
2022/09/12 08:16:20;;;;;;;14.70;8.83;;;;;;;17.71;100.00;99935.39;1801196;79;20929;-38
2022/09/12 08:18:48;;;;;;;11.18;9.63;;;;;;;17.67;100.00;99930.78;1797352;79;21212;-38
2022/09/12 08:21:24;;;;;;;13.90;10.18;;;;;;;17.57;100.00;99926.52;1796238;79;21557;-38
2022/09/12 08:23:59;;;;;;;19.15;9.68;;;;;;;17.55;100.00;99931.00;1797373;79;21419;-37
2022/09/12 08:26:26;;;;;;;14.53;9.50;;;;;;;17.49;100.00;99929.56;1792432;79;21581;-37
2022/09/12 08:28:53;;;;;;;14.78;10.93;;;;;;;17.47;100.00;99929.29;1794420;79;20877;-37
2022/09/12 08:31:22;;;;;;;21.17;11.03;;;;;;;17.48;100.00;99926.57;1794734;79;21249;-36
2022/09/12 08:33:49;;;;;;;16.15;9.98;;;;;;;17.56;100.00;99933.17;1799032;79;20952;-36
2022/09/12 08:36:22;;;;;;;20.12;10.50;;;;;;;17.61;100.00;99933.75;1772396;79;20956;-37
2022/09/12 08:38:54;;;;;;;10.43;9.38;;;;;;;17.63;100.00;99931.89;1795159;79;21026;-37
2022/09/12 08:41:33;;;;;;;20.08;9.65;;;;;;;17.70;100.00;99929.29;1795011;79;21537;-38
2022/09/12 08:44:37;;;;;;;11.90;9.58;;;;;;;17.73;100.00;99925.19;1792865;79;21182;-37
2022/09/12 08:47:32;;;;;;;17.52;10.65;;;;;;;17.79;100.00;99917.46;1796174;79;21485;-38
2022/09/12 08:50:14;;;;;;;14.73;9.83;;;;;;;17.90;100.00;99918.16;1785066;79;21428;-38
2022/09/12 08:53:02;;;;;;;16.35;9.55;;;;;;;18.04;100.00;99913.45;1780733;79;21657;-38
2022/09/12 08:55:38;;;;;;;11.60;9.40;;;;;;;18.30;100.00;99905.36;1795916;79;20901;-38
2022/09/12 08:58:16;;;;;;;25.10;9.40;;;;;;;18.58;100.00;99901.10;1788716;79;21157;-38
2022/09/12 09:01:27;;;;;;;37.33;9.43;;;;;;;18.75;98.53;99897.44;1794365;79;21009;-37
2022/09/12 09:04:17;;;;;;;10.58;8.53;;;;;;;18.69;96.77;99900.90;1794770;79;20964;-38
2022/09/12 09:07:14;;;;;;;11.50;7.90;;;;;;;18.49;96.42;99900.33;1806931;79;20967;-38
2022/09/12 09:10:06;;;;;;;18.85;9.45;;;;;;;18.34;96.68;99897.72;1806332;79;20890;-37
2022/09/12 09:12:42;;;;;;;15.40;9.08;;;;;;;18.22;97.69;99898.43;1800742;79;21105;-38
2022/09/12 09:15:50;;;;;;;14.43;8.10;;;;;;;18.15;96.74;99897.12;1800417;79;20846;-38
2022/09/12 09:18:27;;;;;;;11.78;8.40;;;;;;;18.30;97.45;99889.64;1792712;79;20975;-38
2022/09/12 09:21:15;;;;;;;12.50;8.30;;;;;;;18.45;94.36;99887.05;1790620;79;21544;-39
2022/09/12 09:23:46;;;;;;;12.80;8.20;;;;;;;18.59;94.30;99890.98;1794198;79;20955;-38
2022/09/12 09:26:17;;;;;;;12.43;8.15;;;;;;;18.72;93.82;99886.30;1797429;79;21101;-38
2022/09/12 09:29:02;;;;;;;12.43;6.72;;;;;;;18.84;93.36;99893.41;1771604;79;21415;-38
2022/09/12 09:31:37;;;;;;;10.40;6.67;;;;;;;18.99;92.02;99893.41;1792640;79;21438;-38
2022/09/12 09:34:25;;;;;;;9.73;6.25;;;;;;;19.02;91.23;99892.75;1788584;79;21343;-38
2022/09/12 09:37:17;;;;;;;10.70;6.70;;;;;;;19.07;91.26;99893.30;1777677;79;21054;-38
2022/09/12 09:40:13;;;;;;;9.48;6.42;;;;;;;19.09;90.10;99898.47;1790706;79;21900;-38
2022/09/12 09:42:53;;;;;;;12.23;6.92;;;;;;;19.07;89.69;99899.00;1786952;79;21545;-38
2022/09/12 09:45:22;;;;;;;7.05;6.45;;;;;;;19.12;89.56;99899.58;1796301;79;20971;-38
2022/09/12 09:48:16;;;;;;;7.70;6.95;;;;;;;19.18;88.17;99903.12;1796865;79;21007;-38
2022/09/12 09:50:45;;;;;;;8.63;7.08;;;;;;;19.19;89.61;99899.55;1791029;79;20960;-38
2022/09/12 09:53:29;;;;;;;12.75;6.90;;;;;;;19.16;88.92;99899.75;1794077;79;21247;-39
2022/09/12 09:55:56;;;;;;;11.18;7.00;;;;;;;19.19;90.01;99900.87;1784100;79;20937;-38
2022/09/12 09:58:34;;;;;;;8.55;7.33;;;;;;;19.15;89.03;99903.31;1792869;79;20968;-38
2022/09/12 10:01:05;;;;;;;10.18;8.05;;;;;;;19.07;87.97;99901.63;1800728;79;21022;-39
2022/09/12 10:03:35;;;;;;;12.65;7.40;;;;;;;19.05;88.70;99900.88;1792820;79;21423;-38
2022/09/12 10:06:22;;;;;;;15.00;7.87;;;;;;;19.04;89.37;99910.55;1790953;79;21127;-38
2022/09/12 10:08:49;;;;;;;11.73;6.97;;;;;;;18.93;89.11;99908.56;1775343;79;20929;-37
2022/09/12 10:11:18;;;;;;;10.03;7.67;;;;;;;18.79;89.29;99905.94;1796944;79;20971;-38
2022/09/12 10:13:56;;;;;;;12.90;7.47;;;;;;;18.61;89.83;99903.53;1798212;79;21007;-38
2022/09/12 10:16:27;;;;;;;9.60;7.55;;;;;;;18.42;90.63;99909.02;1800083;79;20964;-38
2022/09/12 10:18:56;;;;;;;10.43;7.42;;;;;;;18.24;91.83;99913.59;1789696;79;21643;-38
2022/09/12 10:21:47;;;;;;;13.50;6.58;;;;;;;18.16;92.39;99916.66;1797205;79;21502;-38
2022/09/12 10:24:34;;;;;;;14.55;7.17;;;;;;;18.02;93.35;99917.46;1794103;79;21033;-38
2022/09/12 10:27:19;;;;;;;9.30;7.53;;;;;;;17.87;94.44;99923.09;1788289;79;20959;-37
2022/09/12 10:29:55;;;;;;;10.85;8.03;;;;;;;17.67;95.12;99925.55;1796123;79;21189;-37
2022/09/12 10:32:28;;;;;;;10.28;7.97;;;;;;;17.46;96.28;99925.81;1794291;79;21267;-37
2022/09/12 10:35:08;;;;;;;11.70;8.18;;;;;;;17.36;97.44;99924.65;1792487;79;20983;-38
2022/09/12 10:37:38;;;;;;;16.52;8.58;;;;;;;17.21;98.11;99931.57;1796871;79;20958;-37
2022/09/12 10:40:09;;;;;;;10.90;8.40;;;;;;;17.02;99.47;99930.39;1792991;79;20911;-38
2022/09/12 10:42:54;;;;;;;17.30;8.48;;;;;;;16.87;100.00;99934.19;1790205;79;20917;-38
2022/09/12 10:45:27;;;;;;;16.27;9.20;;;;;;;16.68;100.00;99934.77;1789485;78;21142;-38
2022/09/12 10:47:58;;;;;;;18.23;9.53;;;;;;;16.65;100.00;99934.45;1792934;79;21003;-39
2022/09/12 10:50:40;;;;;;;19.52;9.40;;;;;;;16.63;100.00;99934.55;1796581;79;21002;-39
2022/09/12 10:53:21;;;;;;;12.82;9.83;;;;;;;16.70;100.00;99930.31;1792001;79;20956;-39
2022/09/12 10:56:12;;;;;;;21.20;9.95;;;;;;;16.76;100.00;99929.98;1775411;79;20918;-39
2022/09/12 10:59:13;;;;;;;13.70;9.20;;;;;;;16.94;100.00;99926.88;1778101;79;22006;-39
2022/09/12 11:01:57;;;;;;;12.85;9.85;;;;;;;17.00;100.00;99927.88;1792890;79;20925;-39
2022/09/12 11:05:09;;;;;;;19.75;10.90;;;;;;;17.01;100.00;99930.02;1794367;79;20964;-39
2022/09/12 11:07:51;;;;;;;14.25;9.78;;;;;;;17.02;100.00;99929.94;1793540;79;20963;-39
2022/09/12 11:10:29;;;;;;;15.75;9.45;;;;;;;16.93;100.00;99929.94;1789325;79;22184;-39
2022/09/12 11:13:05;;;;;;;14.03;9.03;;;;;;;16.99;100.00;99925.33;1799815;79;21860;-39
2022/09/12 11:15:50;;;;;;;14.60;10.08;;;;;;;17.05;100.00;99924.99;1792704;79;20960;-39
2022/09/12 11:18:49;;;;;;;12.00;9.15;;;;;;;17.05;100.00;99925.85;1796783;79;21034;-39
2022/09/12 11:21:53;;;;;;;11.43;8.70;;;;;;;17.14;100.00;99918.42;1789874;79;20929;-39
2022/09/12 11:24:43;;;;;;;10.98;8.10;;;;;;;17.13;100.00;99925.89;1793265;79;20915;-38
2022/09/12 11:27:30;;;;;;;9.40;8.40;;;;;;;17.07;100.00;99928.40;1780450;79;21270;-39
2022/09/12 11:30:11;;;;;;;17.85;8.75;;;;;;;17.09;100.00;99923.92;1790246;79;20968;-38
2022/09/12 11:33:08;;;;;;;12.40;9.58;;;;;;;17.23;100.00;99922.70;1788729;79;22081;-39
2022/09/12 11:35:45;;;;;;;18.35;10.70;;;;;;;17.34;100.00;99916.05;1792127;79;20881;-39
2022/09/12 11:38:43;;;;;;;12.55;9.53;;;;;;;17.47;100.00;99914.91;1790873;79;20991;-38
2022/09/12 11:41:30;;;;;;;14.30;9.10;;;;;;;17.71;100.00;99913.97;1789312;79;21085;-37
2022/09/12 11:44:19;;;;;;;11.57;9.55;;;;;;;18.08;100.00;99903.17;1796706;79;20911;-38
2022/09/12 11:46:45;;;;;;;13.03;9.98;;;;;;;18.53;100.00;99903.13;1795952;79;20928;-38
2022/09/12 11:49:35;;;;;;;16.12;10.00;;;;;;;19.00;100.00;99897.72;1795473;79;20878;-37
2022/09/12 11:52:18;;;;;;;14.65;10.18;;;;;;;18.99;96.97;99897.34;1783577;79;21504;-38
2022/09/12 11:55:18;;;;;;;16.45;11.12;;;;;;;18.98;97.74;99887.77;1797851;79;21814;-37
2022/09/12 11:57:55;;;;;;;11.83;10.20;;;;;;;19.09;98.05;99884.04;1788023;78;20923;-38
2022/09/12 12:00:33;;;;;;;11.35;9.28;;;;;;;19.49;97.29;99878.84;1794313;79;20928;-37
2022/09/12 12:03:21;;;;;;;12.15;9.00;;;;;;;19.98;95.64;99883.14;1789006;79;21109;-38
2022/09/12 12:06:05;;;;;;;11.05;10.00;;;;;;;20.04;91.83;99888.45;1789276;79;20967;-37
2022/09/12 12:08:41;;;;;;;14.35;10.10;;;;;;;20.19;91.58;99888.72;1786136;79;21109;-37
2022/09/12 12:11:10;;;;;;;12.33;9.63;;;;;;;20.40;89.84;99880.31;1795165;79;20920;-39
2022/09/12 12:14:06;;;;;;;12.95;10.40;;;;;;;20.41;88.51;99874.60;1793961;79;20976;-38
2022/09/12 12:16:38;;;;;;;12.18;10.18;;;;;;;20.34;89.34;99870.23;1794087;79;21019;-38
2022/09/12 12:19:19;;;;;;;15.13;10.80;;;;;;;20.34;89.16;99868.46;1802294;79;20962;-38
2022/09/12 12:21:49;;;;;;;15.90;11.18;;;;;;;20.50;89.42;99864.75;1793537;79;21228;-38
2022/09/12 12:24:27;;;;;;;14.05;9.25;;;;;;;20.66;83.77;99864.06;1800302;79;21083;-38
2022/09/12 12:27:02;;;;;;;10.45;9.45;;;;;;;20.79;85.37;99871.06;1788728;79;21454;-38